sensor_id;sensor_type;location;lat;lon;timestamp;P1;durP1;ratioP1;P2;durP2;ratioP2
5129;SDS011;2583;50.946;6.954;2022-12-10T00:01:15;35.43;;;23.43;;
5129;SDS011;2583;50.946;6.954;2022-12-10T00:03:43;34.23;;;23.17;;
5129;SDS011;2583;50.946;6.954;2022-12-10T00:06:12;37.10;;;22.37;;
5129;SDS011;2583;50.946;6.954;2022-12-10T00:08:40;39.27;;;22.40;;
5129;SDS011;2583;50.946;6.954;2022-12-10T00:11:08;32.53;;;22.53;;
5129;SDS011;2583;50.946;6.954;2022-12-10T00:13:36;37.10;;;24.17;;
5129;SDS011;2583;50.946;6.954;2022-12-10T00:16:04;35.30;;;23.70;;
5129;SDS011;2583;50.946;6.954;2022-12-10T00:18:33;36.30;;;24.57;;
5129;SDS011;2583;50.946;6.954;2022-12-10T00:21:04;32.17;;;22.80;;
5129;SDS011;2583;50.946;6.954;2022-12-10T00:23:33;27.60;;;20.87;;
5129;SDS011;2583;50.946;6.954;2022-12-10T00:28:30;42.77;;;25.50;;
5129;SDS011;2583;50.946;6.954;2022-12-10T00:31:18;40.93;;;25.97;;
5129;SDS011;2583;50.946;6.954;2022-12-10T00:33:47;37.97;;;25.40;;
5129;SDS011;2583;50.946;6.954;2022-12-10T00:36:19;41.93;;;25.70;;
5129;SDS011;2583;50.946;6.954;2022-12-10T00:38:50;43.43;;;24.63;;
5129;SDS011;2583;50.946;6.954;2022-12-10T00:41:17;41.97;;;26.80;;
5129;SDS011;2583;50.946;6.954;2022-12-10T00:43:44;39.70;;;24.70;;
5129;SDS011;2583;50.946;6.954;2022-12-10T00:46:11;37.30;;;24.50;;
5129;SDS011;2583;50.946;6.954;2022-12-10T00:48:40;37.73;;;23.73;;
5129;SDS011;2583;50.946;6.954;2022-12-10T00:51:09;35.00;;;22.80;;
5129;SDS011;2583;50.946;6.954;2022-12-10T00:53:41;31.50;;;21.50;;
5129;SDS011;2583;50.946;6.954;2022-12-10T00:56:10;38.20;;;24.03;;
5129;SDS011;2583;50.946;6.954;2022-12-10T00:58:38;34.77;;;22.40;;
5129;SDS011;2583;50.946;6.954;2022-12-10T01:01:06;35.27;;;23.43;;
5129;SDS011;2583;50.946;6.954;2022-12-10T01:04:00;38.10;;;23.87;;
5129;SDS011;2583;50.946;6.954;2022-12-10T01:06:33;33.67;;;22.70;;
5129;SDS011;2583;50.946;6.954;2022-12-10T01:09:03;37.67;;;24.20;;
5129;SDS011;2583;50.946;6.954;2022-12-10T01:11:33;36.43;;;23.33;;
5129;SDS011;2583;50.946;6.954;2022-12-10T01:14:03;35.53;;;22.60;;
5129;SDS011;2583;50.946;6.954;2022-12-10T01:16:31;37.47;;;25.83;;
5129;SDS011;2583;50.946;6.954;2022-12-10T01:18:58;39.33;;;24.80;;
5129;SDS011;2583;50.946;6.954;2022-12-10T01:21:27;34.03;;;23.57;;
5129;SDS011;2583;50.946;6.954;2022-12-10T01:23:54;33.47;;;22.70;;
5129;SDS011;2583;50.946;6.954;2022-12-10T01:26:23;36.83;;;24.13;;
5129;SDS011;2583;50.946;6.954;2022-12-10T01:28:53;39.07;;;22.67;;
5129;SDS011;2583;50.946;6.954;2022-12-10T01:31:25;34.20;;;21.90;;
5129;SDS011;2583;50.946;6.954;2022-12-10T01:33:53;33.57;;;22.03;;
5129;SDS011;2583;50.946;6.954;2022-12-10T01:36:25;33.47;;;21.67;;
5129;SDS011;2583;50.946;6.954;2022-12-10T01:38:54;34.87;;;21.63;;
5129;SDS011;2583;50.946;6.954;2022-12-10T01:41:25;33.27;;;20.73;;
5129;SDS011;2583;50.946;6.954;2022-12-10T01:44:02;33.10;;;21.70;;
5129;SDS011;2583;50.946;6.954;2022-12-10T01:46:33;33.60;;;22.43;;
5129;SDS011;2583;50.946;6.954;2022-12-10T01:49:09;32.53;;;21.17;;
5129;SDS011;2583;50.946;6.954;2022-12-10T01:51:44;35.47;;;22.50;;
5129;SDS011;2583;50.946;6.954;2022-12-10T01:54:16;36.57;;;21.87;;
5129;SDS011;2583;50.946;6.954;2022-12-10T01:56:49;33.40;;;20.63;;
5129;SDS011;2583;50.946;6.954;2022-12-10T01:59:20;33.83;;;20.70;;
5129;SDS011;2583;50.946;6.954;2022-12-10T02:01:52;32.83;;;20.23;;
5129;SDS011;2583;50.946;6.954;2022-12-10T02:04:36;32.23;;;19.70;;
5129;SDS011;2583;50.946;6.954;2022-12-10T02:07:20;35.97;;;21.30;;
5129;SDS011;2583;50.946;6.954;2022-12-10T02:09:53;30.20;;;20.57;;
5129;SDS011;2583;50.946;6.954;2022-12-10T02:15:52;31.27;;;20.83;;
5129;SDS011;2583;50.946;6.954;2022-12-10T02:18:28;28.83;;;20.17;;
5129;SDS011;2583;50.946;6.954;2022-12-10T02:21:14;35.40;;;20.60;;
5129;SDS011;2583;50.946;6.954;2022-12-10T02:23:47;32.90;;;21.10;;
5129;SDS011;2583;50.946;6.954;2022-12-10T02:29:17;28.37;;;19.43;;
5129;SDS011;2583;50.946;6.954;2022-12-10T02:34:47;31.13;;;19.50;;
5129;SDS011;2583;50.946;6.954;2022-12-10T02:37:21;28.93;;;19.90;;
5129;SDS011;2583;50.946;6.954;2022-12-10T02:39:53;31.73;;;21.17;;
5129;SDS011;2583;50.946;6.954;2022-12-10T02:42:22;31.13;;;21.30;;
5129;SDS011;2583;50.946;6.954;2022-12-10T02:44:51;31.33;;;21.10;;
5129;SDS011;2583;50.946;6.954;2022-12-10T02:47:20;37.93;;;21.77;;
5129;SDS011;2583;50.946;6.954;2022-12-10T02:49:47;35.23;;;22.20;;
5129;SDS011;2583;50.946;6.954;2022-12-10T02:52:18;39.17;;;23.10;;
5129;SDS011;2583;50.946;6.954;2022-12-10T02:54:46;40.80;;;22.27;;
5129;SDS011;2583;50.946;6.954;2022-12-10T03:02:40;32.80;;;21.63;;
5129;SDS011;2583;50.946;6.954;2022-12-10T03:13:35;29.53;;;19.80;;
5129;SDS011;2583;50.946;6.954;2022-12-10T03:16:06;34.67;;;22.43;;
5129;SDS011;2583;50.946;6.954;2022-12-10T03:18:34;34.27;;;22.80;;
5129;SDS011;2583;50.946;6.954;2022-12-10T03:21:06;38.33;;;22.90;;
5129;SDS011;2583;50.946;6.954;2022-12-10T03:23:36;34.73;;;22.50;;
5129;SDS011;2583;50.946;6.954;2022-12-10T03:26:07;30.20;;;20.83;;
5129;SDS011;2583;50.946;6.954;2022-12-10T03:28:36;35.43;;;22.37;;
5129;SDS011;2583;50.946;6.954;2022-12-10T03:31:07;32.20;;;22.60;;
5129;SDS011;2583;50.946;6.954;2022-12-10T03:33:38;32.60;;;21.40;;
5129;SDS011;2583;50.946;6.954;2022-12-10T03:36:06;32.53;;;21.57;;
5129;SDS011;2583;50.946;6.954;2022-12-10T03:38:34;34.33;;;22.43;;
5129;SDS011;2583;50.946;6.954;2022-12-10T03:41:02;31.80;;;21.87;;
5129;SDS011;2583;50.946;6.954;2022-12-10T03:43:29;33.27;;;21.13;;
5129;SDS011;2583;50.946;6.954;2022-12-10T03:45:56;32.30;;;21.73;;
5129;SDS011;2583;50.946;6.954;2022-12-10T03:48:23;28.20;;;20.33;;
5129;SDS011;2583;50.946;6.954;2022-12-10T03:50:50;29.43;;;21.40;;
5129;SDS011;2583;50.946;6.954;2022-12-10T03:53:16;33.50;;;21.17;;
5129;SDS011;2583;50.946;6.954;2022-12-10T03:55:43;32.00;;;20.33;;
5129;SDS011;2583;50.946;6.954;2022-12-10T03:58:10;30.63;;;21.50;;
5129;SDS011;2583;50.946;6.954;2022-12-10T04:00:43;33.30;;;21.17;;
5129;SDS011;2583;50.946;6.954;2022-12-10T04:03:10;28.60;;;19.40;;
5129;SDS011;2583;50.946;6.954;2022-12-10T04:05:37;33.50;;;20.73;;
5129;SDS011;2583;50.946;6.954;2022-12-10T04:08:04;29.90;;;20.03;;
5129;SDS011;2583;50.946;6.954;2022-12-10T04:10:34;32.23;;;21.57;;
5129;SDS011;2583;50.946;6.954;2022-12-10T04:13:02;30.07;;;20.37;;
5129;SDS011;2583;50.946;6.954;2022-12-10T04:15:47;34.70;;;20.40;;
5129;SDS011;2583;50.946;6.954;2022-12-10T04:18:33;34.40;;;22.30;;
5129;SDS011;2583;50.946;6.954;2022-12-10T04:21:00;32.93;;;21.77;;
5129;SDS011;2583;50.946;6.954;2022-12-10T04:23:45;32.13;;;19.40;;
5129;SDS011;2583;50.946;6.954;2022-12-10T04:26:31;31.30;;;20.00;;
5129;SDS011;2583;50.946;6.954;2022-12-10T04:29:16;32.00;;;20.53;;
5129;SDS011;2583;50.946;6.954;2022-12-10T04:31:43;30.70;;;20.40;;
5129;SDS011;2583;50.946;6.954;2022-12-10T04:34:10;29.67;;;19.90;;
5129;SDS011;2583;50.946;6.954;2022-12-10T04:36:37;30.73;;;21.40;;
5129;SDS011;2583;50.946;6.954;2022-12-10T04:39:03;34.40;;;21.20;;
5129;SDS011;2583;50.946;6.954;2022-12-10T04:41:30;29.83;;;19.00;;
5129;SDS011;2583;50.946;6.954;2022-12-10T04:43:57;36.20;;;22.60;;
5129;SDS011;2583;50.946;6.954;2022-12-10T04:46:24;32.53;;;19.70;;
5129;SDS011;2583;50.946;6.954;2022-12-10T04:48:50;33.67;;;20.33;;
5129;SDS011;2583;50.946;6.954;2022-12-10T04:51:17;33.40;;;20.50;;
5129;SDS011;2583;50.946;6.954;2022-12-10T04:53:44;34.70;;;21.17;;
5129;SDS011;2583;50.946;6.954;2022-12-10T04:56:11;37.80;;;22.90;;
5129;SDS011;2583;50.946;6.954;2022-12-10T04:58:37;33.30;;;21.67;;
5129;SDS011;2583;50.946;6.954;2022-12-10T05:01:05;40.47;;;23.47;;
5129;SDS011;2583;50.946;6.954;2022-12-10T05:03:33;35.27;;;22.07;;
5129;SDS011;2583;50.946;6.954;2022-12-10T05:06:01;39.17;;;21.83;;
5129;SDS011;2583;50.946;6.954;2022-12-10T05:08:29;37.47;;;22.37;;
5129;SDS011;2583;50.946;6.954;2022-12-10T05:11:06;39.43;;;23.33;;
5129;SDS011;2583;50.946;6.954;2022-12-10T05:13:38;38.63;;;23.37;;
5129;SDS011;2583;50.946;6.954;2022-12-10T05:16:07;39.10;;;23.40;;
5129;SDS011;2583;50.946;6.954;2022-12-10T05:18:36;36.60;;;20.73;;
5129;SDS011;2583;50.946;6.954;2022-12-10T05:21:04;34.37;;;22.57;;
5129;SDS011;2583;50.946;6.954;2022-12-10T05:23:33;38.03;;;22.93;;
5129;SDS011;2583;50.946;6.954;2022-12-10T05:28:32;39.37;;;22.57;;
5129;SDS011;2583;50.946;6.954;2022-12-10T05:31:00;39.27;;;23.50;;
5129;SDS011;2583;50.946;6.954;2022-12-10T05:33:28;38.17;;;23.00;;
5129;SDS011;2583;50.946;6.954;2022-12-10T05:35:56;34.83;;;20.90;;
5129;SDS011;2583;50.946;6.954;2022-12-10T05:38:27;37.07;;;21.47;;
5129;SDS011;2583;50.946;6.954;2022-12-10T05:40:55;35.80;;;23.27;;
5129;SDS011;2583;50.946;6.954;2022-12-10T05:43:26;33.93;;;22.70;;
5129;SDS011;2583;50.946;6.954;2022-12-10T05:45:53;42.67;;;23.33;;
5129;SDS011;2583;50.946;6.954;2022-12-10T05:48:24;35.93;;;21.70;;
5129;SDS011;2583;50.946;6.954;2022-12-10T05:50:51;36.60;;;23.90;;
5129;SDS011;2583;50.946;6.954;2022-12-10T05:53:17;38.10;;;22.33;;
5129;SDS011;2583;50.946;6.954;2022-12-10T05:55:44;41.30;;;23.17;;
5129;SDS011;2583;50.946;6.954;2022-12-10T05:58:11;40.33;;;24.97;;
5129;SDS011;2583;50.946;6.954;2022-12-10T06:00:38;40.03;;;23.10;;
5129;SDS011;2583;50.946;6.954;2022-12-10T06:03:06;42.67;;;24.87;;
5129;SDS011;2583;50.946;6.954;2022-12-10T06:05:40;41.00;;;22.10;;
5129;SDS011;2583;50.946;6.954;2022-12-10T06:08:07;43.70;;;24.40;;
5129;SDS011;2583;50.946;6.954;2022-12-10T06:10:34;41.07;;;23.40;;
5129;SDS011;2583;50.946;6.954;2022-12-10T06:13:02;37.80;;;22.27;;
5129;SDS011;2583;50.946;6.954;2022-12-10T06:15:29;38.80;;;22.93;;
5129;SDS011;2583;50.946;6.954;2022-12-10T06:17:56;32.90;;;21.93;;
5129;SDS011;2583;50.946;6.954;2022-12-10T06:20:23;35.77;;;22.10;;
5129;SDS011;2583;50.946;6.954;2022-12-10T06:22:51;33.47;;;21.87;;
5129;SDS011;2583;50.946;6.954;2022-12-10T06:25:18;30.50;;;19.87;;
5129;SDS011;2583;50.946;6.954;2022-12-10T06:27:45;34.53;;;22.17;;
5129;SDS011;2583;50.946;6.954;2022-12-10T06:30:13;40.03;;;21.90;;
5129;SDS011;2583;50.946;6.954;2022-12-10T06:32:40;35.00;;;22.07;;
5129;SDS011;2583;50.946;6.954;2022-12-10T06:35:09;35.13;;;21.60;;
5129;SDS011;2583;50.946;6.954;2022-12-10T06:37:36;37.10;;;22.13;;
5129;SDS011;2583;50.946;6.954;2022-12-10T06:40:04;40.00;;;23.93;;
5129;SDS011;2583;50.946;6.954;2022-12-10T06:42:32;43.40;;;23.20;;
5129;SDS011;2583;50.946;6.954;2022-12-10T06:44:58;37.90;;;22.93;;
5129;SDS011;2583;50.946;6.954;2022-12-10T06:47:25;43.57;;;23.67;;
5129;SDS011;2583;50.946;6.954;2022-12-10T06:49:52;42.60;;;23.93;;
5129;SDS011;2583;50.946;6.954;2022-12-10T06:52:19;39.27;;;23.30;;
5129;SDS011;2583;50.946;6.954;2022-12-10T06:54:46;45.10;;;24.83;;
5129;SDS011;2583;50.946;6.954;2022-12-10T06:57:12;42.37;;;24.63;;
5129;SDS011;2583;50.946;6.954;2022-12-10T06:59:39;38.67;;;24.00;;
5129;SDS011;2583;50.946;6.954;2022-12-10T07:02:07;43.23;;;25.03;;
5129;SDS011;2583;50.946;6.954;2022-12-10T07:04:36;41.83;;;24.93;;
5129;SDS011;2583;50.946;6.954;2022-12-10T07:07:02;50.00;;;25.93;;
5129;SDS011;2583;50.946;6.954;2022-12-10T07:09:35;44.23;;;23.87;;
5129;SDS011;2583;50.946;6.954;2022-12-10T07:12:01;42.57;;;24.67;;
5129;SDS011;2583;50.946;6.954;2022-12-10T07:14:28;44.40;;;25.67;;
5129;SDS011;2583;50.946;6.954;2022-12-10T07:16:55;48.20;;;25.70;;
5129;SDS011;2583;50.946;6.954;2022-12-10T07:19:22;42.00;;;24.20;;
5129;SDS011;2583;50.946;6.954;2022-12-10T07:21:49;41.67;;;23.47;;
5129;SDS011;2583;50.946;6.954;2022-12-10T07:24:18;41.73;;;24.03;;
5129;SDS011;2583;50.946;6.954;2022-12-10T07:26:45;40.33;;;23.00;;
5129;SDS011;2583;50.946;6.954;2022-12-10T07:29:13;43.37;;;25.00;;
5129;SDS011;2583;50.946;6.954;2022-12-10T07:31:45;44.33;;;24.20;;
5129;SDS011;2583;50.946;6.954;2022-12-10T07:34:14;42.30;;;23.77;;
5129;SDS011;2583;50.946;6.954;2022-12-10T07:36:41;42.33;;;22.87;;
5129;SDS011;2583;50.946;6.954;2022-12-10T07:39:08;39.03;;;22.37;;
5129;SDS011;2583;50.946;6.954;2022-12-10T07:41:36;35.63;;;21.90;;
5129;SDS011;2583;50.946;6.954;2022-12-10T07:44:03;41.00;;;22.93;;
5129;SDS011;2583;50.946;6.954;2022-12-10T07:46:32;35.40;;;22.47;;
5129;SDS011;2583;50.946;6.954;2022-12-10T07:49:00;36.50;;;23.73;;
5129;SDS011;2583;50.946;6.954;2022-12-10T07:51:28;43.57;;;23.73;;
5129;SDS011;2583;50.946;6.954;2022-12-10T07:53:56;35.80;;;22.90;;
5129;SDS011;2583;50.946;6.954;2022-12-10T07:56:23;34.60;;;22.70;;
5129;SDS011;2583;50.946;6.954;2022-12-10T07:58:51;38.60;;;23.17;;
5129;SDS011;2583;50.946;6.954;2022-12-10T08:01:20;32.90;;;21.10;;
5129;SDS011;2583;50.946;6.954;2022-12-10T08:03:49;48.63;;;22.43;;
5129;SDS011;2583;50.946;6.954;2022-12-10T08:06:17;36.03;;;21.27;;
5129;SDS011;2583;50.946;6.954;2022-12-10T08:08:45;33.40;;;22.30;;
5129;SDS011;2583;50.946;6.954;2022-12-10T08:11:14;41.87;;;22.90;;
5129;SDS011;2583;50.946;6.954;2022-12-10T08:13:42;36.47;;;22.47;;
5129;SDS011;2583;50.946;6.954;2022-12-10T08:18:40;39.17;;;23.73;;
5129;SDS011;2583;50.946;6.954;2022-12-10T08:21:09;42.80;;;24.57;;
5129;SDS011;2583;50.946;6.954;2022-12-10T08:23:38;47.90;;;26.37;;
5129;SDS011;2583;50.946;6.954;2022-12-10T08:26:05;52.37;;;27.43;;
5129;SDS011;2583;50.946;6.954;2022-12-10T08:28:36;50.40;;;28.10;;
5129;SDS011;2583;50.946;6.954;2022-12-10T08:31:03;50.40;;;25.43;;
5129;SDS011;2583;50.946;6.954;2022-12-10T08:33:34;62.47;;;28.97;;
5129;SDS011;2583;50.946;6.954;2022-12-10T08:36:02;61.50;;;32.50;;
5129;SDS011;2583;50.946;6.954;2022-12-10T08:38:30;62.03;;;29.80;;
5129;SDS011;2583;50.946;6.954;2022-12-10T08:40:57;77.63;;;32.90;;
5129;SDS011;2583;50.946;6.954;2022-12-10T08:43:24;65.50;;;31.40;;
5129;SDS011;2583;50.946;6.954;2022-12-10T08:45:51;77.27;;;33.87;;
5129;SDS011;2583;50.946;6.954;2022-12-10T08:48:18;72.40;;;33.20;;
5129;SDS011;2583;50.946;6.954;2022-12-10T08:50:44;68.50;;;33.40;;
5129;SDS011;2583;50.946;6.954;2022-12-10T08:53:11;76.13;;;32.57;;
5129;SDS011;2583;50.946;6.954;2022-12-10T08:55:38;70.30;;;30.97;;
5129;SDS011;2583;50.946;6.954;2022-12-10T08:58:14;68.10;;;31.13;;
5129;SDS011;2583;50.946;6.954;2022-12-10T09:00:40;68.13;;;32.20;;
5129;SDS011;2583;50.946;6.954;2022-12-10T09:03:08;63.10;;;31.17;;
5129;SDS011;2583;50.946;6.954;2022-12-10T09:05:35;65.40;;;31.40;;
5129;SDS011;2583;50.946;6.954;2022-12-10T09:08:02;66.80;;;32.80;;
5129;SDS011;2583;50.946;6.954;2022-12-10T09:10:28;71.37;;;33.70;;
5129;SDS011;2583;50.946;6.954;2022-12-10T09:12:55;66.67;;;34.10;;
5129;SDS011;2583;50.946;6.954;2022-12-10T09:15:28;68.97;;;35.20;;
5129;SDS011;2583;50.946;6.954;2022-12-10T09:17:55;78.50;;;37.13;;
5129;SDS011;2583;50.946;6.954;2022-12-10T09:20:22;68.33;;;34.20;;
5129;SDS011;2583;50.946;6.954;2022-12-10T09:22:48;78.37;;;36.33;;
5129;SDS011;2583;50.946;6.954;2022-12-10T09:25:15;85.37;;;36.60;;
5129;SDS011;2583;50.946;6.954;2022-12-10T09:27:43;71.70;;;36.33;;
5129;SDS011;2583;50.946;6.954;2022-12-10T09:30:10;81.73;;;38.67;;
5129;SDS011;2583;50.946;6.954;2022-12-10T09:32:38;83.70;;;38.83;;
5129;SDS011;2583;50.946;6.954;2022-12-10T09:35:04;85.13;;;40.43;;
5129;SDS011;2583;50.946;6.954;2022-12-10T09:37:32;80.43;;;38.20;;
5129;SDS011;2583;50.946;6.954;2022-12-10T09:39:59;85.10;;;38.30;;
5129;SDS011;2583;50.946;6.954;2022-12-10T09:50:20;79.73;;;37.83;;
5129;SDS011;2583;50.946;6.954;2022-12-10T09:52:49;92.30;;;41.03;;
5129;SDS011;2583;50.946;6.954;2022-12-10T09:55:20;88.60;;;39.40;;
5129;SDS011;2583;50.946;6.954;2022-12-10T09:57:56;87.73;;;39.10;;
5129;SDS011;2583;50.946;6.954;2022-12-10T10:00:36;84.43;;;38.33;;
5129;SDS011;2583;50.946;6.954;2022-12-10T10:03:04;87.53;;;38.40;;
5129;SDS011;2583;50.946;6.954;2022-12-10T10:05:35;85.17;;;37.67;;
5129;SDS011;2583;50.946;6.954;2022-12-10T10:08:05;76.70;;;37.23;;
5129;SDS011;2583;50.946;6.954;2022-12-10T10:10:39;80.77;;;35.40;;
5129;SDS011;2583;50.946;6.954;2022-12-10T10:15:36;74.13;;;36.43;;
5129;SDS011;2583;50.946;6.954;2022-12-10T10:20:49;73.80;;;35.83;;
5129;SDS011;2583;50.946;6.954;2022-12-10T10:23:16;72.20;;;37.13;;
5129;SDS011;2583;50.946;6.954;2022-12-10T10:25:43;66.67;;;35.53;;
5129;SDS011;2583;50.946;6.954;2022-12-10T10:28:12;70.40;;;35.43;;
5129;SDS011;2583;50.946;6.954;2022-12-10T10:30:44;73.23;;;35.37;;
5129;SDS011;2583;50.946;6.954;2022-12-10T10:33:12;81.40;;;36.93;;
5129;SDS011;2583;50.946;6.954;2022-12-10T10:35:44;77.40;;;37.37;;
5129;SDS011;2583;50.946;6.954;2022-12-10T10:38:19;81.20;;;37.20;;
5129;SDS011;2583;50.946;6.954;2022-12-10T10:40:53;73.43;;;35.90;;
5129;SDS011;2583;50.946;6.954;2022-12-10T10:43:27;70.37;;;35.83;;
5129;SDS011;2583;50.946;6.954;2022-12-10T10:48:36;76.77;;;37.70;;
5129;SDS011;2583;50.946;6.954;2022-12-10T10:53:43;71.47;;;35.57;;
5129;SDS011;2583;50.946;6.954;2022-12-10T10:56:17;75.93;;;36.30;;
5129;SDS011;2583;50.946;6.954;2022-12-10T10:59:19;77.10;;;36.40;;
5129;SDS011;2583;50.946;6.954;2022-12-10T11:01:52;71.50;;;36.03;;
5129;SDS011;2583;50.946;6.954;2022-12-10T11:04:28;75.83;;;38.00;;
5129;SDS011;2583;50.946;6.954;2022-12-10T11:07:00;68.47;;;36.47;;
5129;SDS011;2583;50.946;6.954;2022-12-10T11:09:30;73.47;;;38.00;;
5129;SDS011;2583;50.946;6.954;2022-12-10T11:12:06;81.30;;;38.80;;
5129;SDS011;2583;50.946;6.954;2022-12-10T11:14:49;82.40;;;38.70;;
5129;SDS011;2583;50.946;6.954;2022-12-10T11:24:56;72.70;;;35.77;;
5129;SDS011;2583;50.946;6.954;2022-12-10T11:30:08;69.70;;;35.90;;
5129;SDS011;2583;50.946;6.954;2022-12-10T11:35:20;66.80;;;36.40;;
5129;SDS011;2583;50.946;6.954;2022-12-10T11:38:04;75.30;;;35.90;;
5129;SDS011;2583;50.946;6.954;2022-12-10T11:41:02;73.93;;;35.47;;
5129;SDS011;2583;50.946;6.954;2022-12-10T12:00:49;70.87;;;32.97;;
5129;SDS011;2583;50.946;6.954;2022-12-10T12:09:03;59.23;;;30.00;;
5129;SDS011;2583;50.946;6.954;2022-12-10T12:12:01;54.37;;;28.83;;
5129;SDS011;2583;50.946;6.954;2022-12-10T12:17:40;56.63;;;28.70;;
5129;SDS011;2583;50.946;6.954;2022-12-10T12:20:31;52.43;;;27.13;;
5129;SDS011;2583;50.946;6.954;2022-12-10T12:23:15;55.43;;;29.33;;
5129;SDS011;2583;50.946;6.954;2022-12-10T12:25:51;58.50;;;28.53;;
5129;SDS011;2583;50.946;6.954;2022-12-10T12:28:24;48.67;;;27.80;;
5129;SDS011;2583;50.946;6.954;2022-12-10T12:31:00;54.13;;;29.37;;
5129;SDS011;2583;50.946;6.954;2022-12-10T12:36:17;60.17;;;30.67;;
5129;SDS011;2583;50.946;6.954;2022-12-10T12:38:55;55.03;;;29.33;;
5129;SDS011;2583;50.946;6.954;2022-12-10T12:41:29;46.40;;;25.83;;
5129;SDS011;2583;50.946;6.954;2022-12-10T12:44:18;50.43;;;29.00;;
5129;SDS011;2583;50.946;6.954;2022-12-10T12:49:59;51.63;;;26.27;;
5129;SDS011;2583;50.946;6.954;2022-12-10T12:53:13;51.03;;;26.97;;
5129;SDS011;2583;50.946;6.954;2022-12-10T12:55:31;48.57;;;26.50;;
5129;SDS011;2583;50.946;6.954;2022-12-10T13:00:42;47.83;;;25.93;;
5129;SDS011;2583;50.946;6.954;2022-12-10T13:03:19;47.17;;;25.97;;
5129;SDS011;2583;50.946;6.954;2022-12-10T13:06:12;49.33;;;25.83;;
5129;SDS011;2583;50.946;6.954;2022-12-10T13:08:49;46.43;;;25.80;;
5129;SDS011;2583;50.946;6.954;2022-12-10T13:11:30;49.67;;;27.13;;
5129;SDS011;2583;50.946;6.954;2022-12-10T13:25:12;49.83;;;28.20;;
5129;SDS011;2583;50.946;6.954;2022-12-10T13:27:57;50.17;;;27.70;;
5129;SDS011;2583;50.946;6.954;2022-12-10T13:36:34;67.67;;;33.43;;
5129;SDS011;2583;50.946;6.954;2022-12-10T13:45:01;65.10;;;33.27;;
5129;SDS011;2583;50.946;6.954;2022-12-10T13:47:32;64.20;;;32.33;;
5129;SDS011;2583;50.946;6.954;2022-12-10T13:50:20;54.40;;;30.10;;
5129;SDS011;2583;50.946;6.954;2022-12-10T13:53:02;56.50;;;27.90;;
5129;SDS011;2583;50.946;6.954;2022-12-10T14:06:37;56.97;;;27.87;;
5129;SDS011;2583;50.946;6.954;2022-12-10T14:09:09;53.27;;;27.37;;
5129;SDS011;2583;50.946;6.954;2022-12-10T14:12:01;49.00;;;27.17;;
5129;SDS011;2583;50.946;6.954;2022-12-10T14:14:45;55.77;;;28.50;;
5129;SDS011;2583;50.946;6.954;2022-12-10T14:17:20;61.87;;;29.53;;
5129;SDS011;2583;50.946;6.954;2022-12-10T14:19:57;49.73;;;25.07;;
5129;SDS011;2583;50.946;6.954;2022-12-10T14:22:33;53.67;;;28.43;;
5129;SDS011;2583;50.946;6.954;2022-12-10T14:25:09;55.07;;;31.00;;
5129;SDS011;2583;50.946;6.954;2022-12-10T14:27:47;59.23;;;28.77;;
5129;SDS011;2583;50.946;6.954;2022-12-10T14:30:20;60.40;;;30.23;;
5129;SDS011;2583;50.946;6.954;2022-12-10T14:32:48;50.77;;;28.77;;
5129;SDS011;2583;50.946;6.954;2022-12-10T14:35:25;54.37;;;30.50;;
5129;SDS011;2583;50.946;6.954;2022-12-10T14:37:55;55.00;;;30.30;;
5129;SDS011;2583;50.946;6.954;2022-12-10T14:40:26;59.63;;;31.80;;
5129;SDS011;2583;50.946;6.954;2022-12-10T14:43:15;52.73;;;32.13;;
5129;SDS011;2583;50.946;6.954;2022-12-10T14:45:48;57.57;;;32.10;;
5129;SDS011;2583;50.946;6.954;2022-12-10T14:48:17;61.27;;;31.07;;
5129;SDS011;2583;50.946;6.954;2022-12-10T14:50:45;58.83;;;30.03;;
5129;SDS011;2583;50.946;6.954;2022-12-10T14:53:19;62.40;;;34.30;;
5129;SDS011;2583;50.946;6.954;2022-12-10T14:55:58;48.87;;;26.03;;
5129;SDS011;2583;50.946;6.954;2022-12-10T14:58:40;44.50;;;26.73;;
5129;SDS011;2583;50.946;6.954;2022-12-10T15:01:15;47.53;;;25.60;;
5129;SDS011;2583;50.946;6.954;2022-12-10T15:04:16;44.47;;;23.57;;
5129;SDS011;2583;50.946;6.954;2022-12-10T15:06:51;47.53;;;24.43;;
5129;SDS011;2583;50.946;6.954;2022-12-10T15:09:25;47.67;;;25.37;;
5129;SDS011;2583;50.946;6.954;2022-12-10T15:11:56;48.43;;;24.93;;
5129;SDS011;2583;50.946;6.954;2022-12-10T15:14:26;53.37;;;27.90;;
5129;SDS011;2583;50.946;6.954;2022-12-10T15:16:55;48.50;;;25.00;;
5129;SDS011;2583;50.946;6.954;2022-12-10T15:22:11;49.53;;;25.37;;
5129;SDS011;2583;50.946;6.954;2022-12-10T15:24:47;50.23;;;26.30;;
5129;SDS011;2583;50.946;6.954;2022-12-10T15:27:19;56.20;;;27.70;;
5129;SDS011;2583;50.946;6.954;2022-12-10T15:29:47;57.13;;;26.00;;
5129;SDS011;2583;50.946;6.954;2022-12-10T15:32:16;55.50;;;28.97;;
5129;SDS011;2583;50.946;6.954;2022-12-10T15:34:48;54.00;;;28.47;;
5129;SDS011;2583;50.946;6.954;2022-12-10T15:37:23;51.20;;;27.07;;
5129;SDS011;2583;50.946;6.954;2022-12-10T15:39:55;51.93;;;28.20;;
5129;SDS011;2583;50.946;6.954;2022-12-10T15:45:25;55.30;;;28.50;;
5129;SDS011;2583;50.946;6.954;2022-12-10T15:48:03;53.30;;;26.70;;
5129;SDS011;2583;50.946;6.954;2022-12-10T15:50:38;51.87;;;25.27;;
5129;SDS011;2583;50.946;6.954;2022-12-10T15:53:14;49.03;;;26.30;;
5129;SDS011;2583;50.946;6.954;2022-12-10T15:55:47;51.13;;;29.10;;
5129;SDS011;2583;50.946;6.954;2022-12-10T15:58:14;47.83;;;27.07;;
5129;SDS011;2583;50.946;6.954;2022-12-10T16:00:41;51.67;;;26.40;;
5129;SDS011;2583;50.946;6.954;2022-12-10T16:03:11;59.07;;;28.97;;
5129;SDS011;2583;50.946;6.954;2022-12-10T16:05:40;56.37;;;28.20;;
5129;SDS011;2583;50.946;6.954;2022-12-10T16:08:22;65.80;;;32.27;;
5129;SDS011;2583;50.946;6.954;2022-12-10T16:10:51;52.20;;;29.10;;
5129;SDS011;2583;50.946;6.954;2022-12-10T16:13:21;57.53;;;30.90;;
5129;SDS011;2583;50.946;6.954;2022-12-10T16:16:00;54.13;;;30.00;;
5129;SDS011;2583;50.946;6.954;2022-12-10T16:18:35;57.80;;;30.50;;
5129;SDS011;2583;50.946;6.954;2022-12-10T16:21:03;53.90;;;28.70;;
5129;SDS011;2583;50.946;6.954;2022-12-10T16:23:31;57.27;;;32.00;;
5129;SDS011;2583;50.946;6.954;2022-12-10T16:25:59;56.80;;;30.20;;
5129;SDS011;2583;50.946;6.954;2022-12-10T16:28:26;53.50;;;28.93;;
5129;SDS011;2583;50.946;6.954;2022-12-10T16:30:54;52.97;;;29.30;;
5129;SDS011;2583;50.946;6.954;2022-12-10T16:33:24;64.40;;;28.57;;
5129;SDS011;2583;50.946;6.954;2022-12-10T16:35:53;49.77;;;25.80;;
5129;SDS011;2583;50.946;6.954;2022-12-10T16:38:21;51.17;;;26.70;;
5129;SDS011;2583;50.946;6.954;2022-12-10T16:40:50;55.27;;;28.43;;
5129;SDS011;2583;50.946;6.954;2022-12-10T16:43:18;49.03;;;25.67;;
5129;SDS011;2583;50.946;6.954;2022-12-10T16:45:50;52.10;;;25.60;;
5129;SDS011;2583;50.946;6.954;2022-12-10T16:48:17;46.60;;;26.27;;
5129;SDS011;2583;50.946;6.954;2022-12-10T16:50:45;48.03;;;25.63;;
5129;SDS011;2583;50.946;6.954;2022-12-10T16:53:15;47.07;;;26.57;;
5129;SDS011;2583;50.946;6.954;2022-12-10T16:55:44;44.27;;;26.87;;
5129;SDS011;2583;50.946;6.954;2022-12-10T16:58:12;49.57;;;26.50;;
5129;SDS011;2583;50.946;6.954;2022-12-10T17:00:41;50.20;;;26.20;;
5129;SDS011;2583;50.946;6.954;2022-12-10T17:03:11;47.10;;;28.13;;
5129;SDS011;2583;50.946;6.954;2022-12-10T17:05:54;52.30;;;27.03;;
5129;SDS011;2583;50.946;6.954;2022-12-10T17:08:23;45.13;;;25.17;;
5129;SDS011;2583;50.946;6.954;2022-12-10T17:10:51;41.30;;;24.77;;
5129;SDS011;2583;50.946;6.954;2022-12-10T17:13:38;52.53;;;25.30;;
5129;SDS011;2583;50.946;6.954;2022-12-10T17:16:08;45.87;;;25.13;;
5129;SDS011;2583;50.946;6.954;2022-12-10T17:18:41;46.10;;;25.03;;
5129;SDS011;2583;50.946;6.954;2022-12-10T17:21:08;48.63;;;26.70;;
5129;SDS011;2583;50.946;6.954;2022-12-10T17:23:35;47.50;;;25.70;;
5129;SDS011;2583;50.946;6.954;2022-12-10T17:26:02;43.87;;;25.73;;
5129;SDS011;2583;50.946;6.954;2022-12-10T17:28:30;48.13;;;26.23;;